Centenario Blu — 3FXD7 — position and weather

sailwx.info

Track history (hours):
 
Tides and Currents Weather Stations Pressure Air Temp Water Temp Dewpoint Dewpoint Depression Visibility Wind Speed Wind Dir Waves Ship Positions

Centenario Blu

Last reported at 2017-Oct-05 04:32 UTC. Time now 2017-Nov-24 05:24 UTC.
Position N 33°37' W 014°60'.
Warning: this ship's position is 50 days out of date.

Length 190 m; draft 12.1 m.

Type: Cargo ship. MMSI: 356832000.

Date/timePositionNaut miles runAvg speedWind from/ knotsBaromVisibWave heightAir tempDewpointWater temp
2017-Oct-05 04:32N 33°37' W 014°60'212.9
2017-Oct-05 04:22N 33°37' W 014°57'1513.1
2017-Oct-05 03:13N 33°38' W 014°39'413.2
2017-Oct-05 02:52N 33°38' W 014°34'513.3
2017-Oct-05 02:30N 33°38' W 014°28'713.3
2017-Oct-05 01:59N 33°39' W 014°20'713.5
2017-Oct-05 01:30N 33°39' W 014°12'713.4
2017-Oct-05 01:00N 33°39' W 014°04'913.2
2017-Oct-05 00:20N 33°40' W 013°53'413.2
2017-Oct-05 00:00N 33°40' W 013°48'713.2
2017-Oct-04 23:30N 33°40' W 013°40'713.1
2017-Oct-04 23:00N 33°41' W 013°32'713.2
2017-Oct-04 22:30N 33°41' W 013°24'713.2
2017-Oct-04 22:00N 33°41' W 013°16'713.2
2017-Oct-04 21:30N 33°41' W 013°09'713.2
2017-Oct-04 21:00N 33°42' W 013°01'713.3
2017-Oct-04 20:30N 33°42' W 012°53'713.2
2017-Oct-04 20:00N 33°42' W 012°45'713.1
2017-Oct-04 19:31N 33°42' W 012°37'713.1
2017-Oct-04 19:00N 33°43' W 012°29'713.5
2017-Oct-04 18:30N 33°43' W 012°21'713.3
2017-Oct-04 18:00N 33°43' W 012°13'713.4
2017-Oct-04 17:30N 33°43' W 012°05'1313.3
2017-Oct-04 16:30N 33°43' W 011°49'713.4
2017-Oct-04 16:01N 33°44' W 011°41'613.0
2017-Oct-04 15:31N 33°44' W 011°33'713.0
2017-Oct-04 15:00N 33°44' W 011°25'713.1
2017-Oct-04 14:30N 33°44' W 011°17'713.1
2017-Oct-04 14:01N 33°44' W 011°09'713.1
2017-Oct-04 13:30N 33°44' W 011°01'713.3
2017-Oct-04 13:00N 33°44' W 010°53'713.3
2017-Oct-04 12:30N 33°45' W 010°45'713.5
2017-Oct-04 12:00N 33°45' W 010°37'713.9
2017-Oct-04 11:30N 33°45' W 010°29'813.8
2017-Oct-04 10:54N 33°45' W 010°19'713.8
2017-Oct-04 10:24N 33°45' W 010°11'813.6
2017-Oct-04 09:51N 33°45' W 010°02'513.4
2017-Oct-04 09:29N 33°45' W 009°56'913.4
2017-Oct-04 08:49N 33°45' W 009°45'1013.2
2017-Oct-04 08:04N 33°45' W 009°33'413.2
2017-Oct-04 07:46N 33°45' W 009°28'613.2
2017-Oct-04 07:19N 33°45' W 009°21'613.0
2017-Oct-04 06:49N 33°45' W 009°13'1213.3
2017-Oct-04 05:57N 33°45' W 008°59'913.4
2017-Oct-04 05:17N 33°45' W 008°49'613.4
2017-Oct-04 04:51N 33°45' W 008°42'513.2
2017-Oct-04 04:30N 33°45' W 008°36'713.3
2017-Oct-04 04:00N 33°45' W 008°28'3713.6
2017-Oct-04 01:17N 33°44' W 007°44'413.4
2017-Oct-04 01:01N 33°44' W 007°39'  
2017-Sep-28 02:32N 33°39' W 007°36'0 0.0
2017-Sep-28 02:29N 33°39' W 007°36'3 0.1
2017-Sep-27 00:23N 33°36' W 007°37'0 0.0
2017-Sep-26 14:17N 33°36' W 007°37'0 0.0
2017-Sep-26 13:59N 33°36' W 007°37'0 0.0
2017-Sep-26 13:29N 33°36' W 007°37'0 0.0
2017-Sep-26 12:47N 33°36' W 007°37'0 0.0
2017-Sep-26 12:26N 33°36' W 007°37'0 0.0
2017-Sep-26 07:41N 33°36' W 007°37'0 0.0
2017-Sep-26 07:29N 33°36' W 007°37'0 0.0
2017-Sep-26 06:49N 33°36' W 007°37'0 0.0
2017-Sep-26 06:17N 33°36' W 007°37'0 0.0
2017-Sep-26 05:47N 33°36' W 007°37'0 0.0
2017-Sep-26 05:17N 33°36' W 007°37'0 0.0
2017-Sep-26 04:58N 33°36' W 007°37'  
Track history (hours):
 
Tides and Currents Weather Stations Pressure Air Temp Water Temp Dewpoint Dewpoint Depression Visibility Wind Speed Wind Dir Waves Ship Positions

Centenario Blu

Last reported at 2017-Oct-05 04:32 UTC. Time now 2017-Nov-24 05:24 UTC.
Position N 33°37' W 014°60'.
Warning: this ship's position is 50 days out of date.

Length 190 m; draft 12.1 m.

Type: Cargo ship. MMSI: 356832000.

Date/timePositionNaut miles runAvg speedWind from/ knotsBaromVisibWave heightAir tempDewpointWater temp
2017-Oct-05 04:32N 33°37' W 014°60'212.9
2017-Oct-05 04:22N 33°37' W 014°57'1513.1
2017-Oct-05 03:13N 33°38' W 014°39'413.2
2017-Oct-05 02:52N 33°38' W 014°34'513.3
2017-Oct-05 02:30N 33°38' W 014°28'713.3
2017-Oct-05 01:59N 33°39' W 014°20'713.5
2017-Oct-05 01:30N 33°39' W 014°12'713.4
2017-Oct-05 01:00N 33°39' W 014°04'913.2
2017-Oct-05 00:20N 33°40' W 013°53'413.2
2017-Oct-05 00:00N 33°40' W 013°48'713.2
2017-Oct-04 23:30N 33°40' W 013°40'713.1
2017-Oct-04 23:00N 33°41' W 013°32'713.2
2017-Oct-04 22:30N 33°41' W 013°24'713.2
2017-Oct-04 22:00N 33°41' W 013°16'713.2
2017-Oct-04 21:30N 33°41' W 013°09'713.2
2017-Oct-04 21:00N 33°42' W 013°01'713.3
2017-Oct-04 20:30N 33°42' W 012°53'713.2
2017-Oct-04 20:00N 33°42' W 012°45'713.1
2017-Oct-04 19:31N 33°42' W 012°37'713.1
2017-Oct-04 19:00N 33°43' W 012°29'713.5
2017-Oct-04 18:30N 33°43' W 012°21'713.3
2017-Oct-04 18:00N 33°43' W 012°13'713.4
2017-Oct-04 17:30N 33°43' W 012°05'1313.3
2017-Oct-04 16:30N 33°43' W 011°49'713.4
2017-Oct-04 16:01N 33°44' W 011°41'613.0
2017-Oct-04 15:31N 33°44' W 011°33'713.0
2017-Oct-04 15:00N 33°44' W 011°25'713.1
2017-Oct-04 14:30N 33°44' W 011°17'713.1
2017-Oct-04 14:01N 33°44' W 011°09'713.1
2017-Oct-04 13:30N 33°44' W 011°01'713.3
2017-Oct-04 13:00N 33°44' W 010°53'713.3
2017-Oct-04 12:30N 33°45' W 010°45'713.5
2017-Oct-04 12:00N 33°45' W 010°37'713.9
2017-Oct-04 11:30N 33°45' W 010°29'813.8
2017-Oct-04 10:54N 33°45' W 010°19'713.8
2017-Oct-04 10:24N 33°45' W 010°11'813.6
2017-Oct-04 09:51N 33°45' W 010°02'513.4
2017-Oct-04 09:29N 33°45' W 009°56'913.4
2017-Oct-04 08:49N 33°45' W 009°45'1013.2
2017-Oct-04 08:04N 33°45' W 009°33'413.2
2017-Oct-04 07:46N 33°45' W 009°28'613.2
2017-Oct-04 07:19N 33°45' W 009°21'613.0
2017-Oct-04 06:49N 33°45' W 009°13'1213.3
2017-Oct-04 05:57N 33°45' W 008°59'913.4
2017-Oct-04 05:17N 33°45' W 008°49'613.4
2017-Oct-04 04:51N 33°45' W 008°42'513.2
2017-Oct-04 04:30N 33°45' W 008°36'713.3
2017-Oct-04 04:00N 33°45' W 008°28'3713.6
2017-Oct-04 01:17N 33°44' W 007°44'413.4
2017-Oct-04 01:01N 33°44' W 007°39'  
2017-Sep-28 02:32N 33°39' W 007°36'0 0.0
2017-Sep-28 02:29N 33°39' W 007°36'3 0.1
2017-Sep-27 00:23N 33°36' W 007°37'0 0.0
2017-Sep-26 14:17N 33°36' W 007°37'0 0.0
2017-Sep-26 13:59N 33°36' W 007°37'0 0.0
2017-Sep-26 13:29N 33°36' W 007°37'0 0.0
2017-Sep-26 12:47N 33°36' W 007°37'0 0.0
2017-Sep-26 12:26N 33°36' W 007°37'0 0.0
2017-Sep-26 07:41N 33°36' W 007°37'0 0.0
2017-Sep-26 07:29N 33°36' W 007°37'0 0.0
2017-Sep-26 06:49N 33°36' W 007°37'0 0.0
2017-Sep-26 06:17N 33°36' W 007°37'0 0.0
2017-Sep-26 05:47N 33°36' W 007°37'0 0.0
2017-Sep-26 05:17N 33°36' W 007°37'0 0.0
2017-Sep-26 04:58N 33°36' W 007°37'  

Dump ship's entire track history